Time;durP1;ratioP1;P1;durP2;ratioP2;P2;SDS_P1;SDS_P2;PMS_P1;PMS_P2;Temp;Humidity;BMP_temperature;BMP_pressure;BME280_temperature;BME280_humidity;BME280_pressure;Samples;Min_cycle;Max_cycle;Signal;HPM_P1;HPM_P2
2022/12/28 00:01:15;;;;;;;;;;;;;;;12.13;47.48;101395.38;4986107;27;112611;-69
2022/12/28 00:03:41;;;;;;;;;;;;;;;12.11;47.59;101387.53;4987856;27;99677;-70
2022/12/28 00:06:07;;;;;;;;;;;;;;;12.12;47.62;101393.75;4987920;27;98603;-68
2022/12/28 00:08:33;;;;;;;;;;;;;;;12.11;47.73;101389.41;4970297;27;98745;-65
2022/12/28 00:11:00;;;;;;;;;;;;;;;12.10;47.54;101391.28;4988206;27;109318;-70
2022/12/28 00:13:28;;;;;;;;;;;;;;;12.10;47.65;101388.56;5002028;27;98265;-65
2022/12/28 00:15:53;;;;;;;;;;;;;;;12.09;47.53;101392.34;4982354;27;127278;-70
2022/12/28 00:18:19;;;;;;;;;;;;;;;12.09;47.76;101391.53;4987526;27;128062;-70
2022/12/28 00:20:57;;;;;;;;;;;;;;;12.10;47.76;101387.75;4970665;27;111348;-65
2022/12/28 00:23:24;;;;;;;;;;;;;;;12.10;47.62;101393.16;4971633;27;99463;-70
2022/12/28 00:25:50;;;;;;;;;;;;;;;12.10;47.69;101387.75;4967833;27;112086;-70
2022/12/28 00:28:16;;;;;;;;;;;;;;;12.10;47.48;101380.47;4989783;27;98284;-70
2022/12/28 00:30:41;;;;;;;;;;;;;;;12.10;47.42;101375.06;4971688;27;112803;-68
2022/12/28 00:33:07;;;;;;;;;;;;;;;12.12;47.64;101380.22;4969812;27;128148;-68
2022/12/28 00:35:33;;;;;;;;;;;;;;;12.10;47.68;101361.56;4974005;27;120995;-70
2022/12/28 00:37:59;;;;;;;;;;;;;;;12.10;47.59;101361.56;4968660;27;128149;-64
2022/12/28 00:40:25;;;;;;;;;;;;;;;12.13;47.66;101357.53;4987003;27;112859;-70
2022/12/28 00:42:51;;;;;;;;;;;;;;;12.12;47.71;101355.91;4988667;27;97906;-65
2022/12/28 00:45:17;;;;;;;;;;;;;;;12.12;47.66;101353.22;4986878;27;127787;-65
2022/12/28 00:47:43;;;;;;;;;;;;;;;12.12;47.45;101364.00;5020573;27;127574;-65
2022/12/28 00:50:09;;;;;;;;;;;;;;;12.13;47.50;101363.75;4998992;27;98679;-65
2022/12/28 00:52:35;;;;;;;;;;;;;;;12.15;47.61;101377.03;4969786;27;128649;-65
2022/12/28 00:55:01;;;;;;;;;;;;;;;12.13;47.68;101363.75;4971461;27;101620;-65
2022/12/28 00:57:27;;;;;;;;;;;;;;;12.14;47.59;101357.25;5002771;27;128058;-65
2022/12/28 00:59:52;;;;;;;;;;;;;;;12.14;47.60;101351.84;4969203;27;112076;-65
2022/12/28 01:02:18;;;;;;;;;;;;;;;12.14;47.55;101351.03;4984995;27;125866;-65
2022/12/28 01:04:44;;;;;;;;;;;;;;;12.16;47.66;101348.91;5003572;27;125131;-70
2022/12/28 01:07:11;;;;;;;;;;;;;;;12.16;47.51;101343.50;4969916;27;127111;-65
2022/12/28 01:09:37;;;;;;;;;;;;;;;12.16;47.53;101343.50;5006016;27;98119;-70
2022/12/28 01:12:03;;;;;;;;;;;;;;;12.15;47.57;101340.00;5022856;27;99497;-70
2022/12/28 01:14:29;;;;;;;;;;;;;;;12.16;47.55;101338.09;4986459;27;117585;-64
2022/12/28 01:16:55;;;;;;;;;;;;;;;12.15;47.59;101331.91;4971097;27;125934;-68
2022/12/28 01:19:21;;;;;;;;;;;;;;;12.16;47.49;101343.50;4968928;27;113005;-70
2022/12/28 01:21:48;;;;;;;;;;;;;;;12.14;47.70;101354.56;4984682;27;110532;-70
2022/12/28 01:24:14;;;;;;;;;;;;;;;12.14;47.51;101343.75;5021700;27;98660;-65
2022/12/28 01:26:40;;;;;;;;;;;;;;;12.13;47.71;101347.53;4985168;27;99473;-67
2022/12/28 01:29:06;;;;;;;;;;;;;;;12.13;47.58;101344.03;4984702;27;98118;-65
2022/12/28 01:31:32;;;;;;;;;;;;;;;12.12;47.50;101343.22;4971355;27;97988;-69
2022/12/28 01:33:58;;;;;;;;;;;;;;;12.12;47.64;101342.41;4987924;27;98578;-69
2022/12/28 01:36:30;;;;;;;;;;;;;;;12.11;47.54;101341.59;4969072;27;97889;-69
2022/12/28 01:38:57;;;;;;;;;;;;;;;12.11;47.42;101327.25;4984917;27;100185;-70
2022/12/28 01:41:24;;;;;;;;;;;;;;;12.10;47.58;101331.00;4985128;27;99690;-70
2022/12/28 01:43:53;;;;;;;;;;;;;;;12.09;47.54;101324.78;4969943;27;112131;-70
2022/12/28 01:46:25;;;;;;;;;;;;;;;12.09;47.42;101327.50;5002256;27;102012;-69
2022/12/28 01:49:01;;;;;;;;;;;;;;;12.08;47.73;101314.25;4968430;27;98447;-68
2022/12/28 01:51:28;;;;;;;;;;;;;;;12.07;47.46;101318.84;5001705;27;98269;-70
2022/12/28 01:53:54;;;;;;;;;;;;;;;12.07;47.54;101318.84;4984671;27;124343;-70
2022/12/28 01:56:20;;;;;;;;;;;;;;;12.06;47.64;101305.56;4970115;27;129652;-70
2022/12/28 01:58:46;;;;;;;;;;;;;;;12.05;47.68;101293.97;4967318;27;108665;-69
2022/12/28 02:01:12;;;;;;;;;;;;;;;12.04;47.60;101289.63;4965343;27;99195;-65
2022/12/28 02:03:38;;;;;;;;;;;;;;;12.04;47.55;101278.81;4987163;27;129195;-70
2022/12/28 02:06:06;;;;;;;;;;;;;;;12.03;47.68;101274.50;4968516;27;128233;-70
2022/12/28 02:08:43;;;;;;;;;;;;;;;12.01;47.55;101274.72;5004549;27;98035;-70
2022/12/28 02:11:11;;;;;;;;;;;;;;;12.01;47.73;101269.34;4966949;27;98959;-65
2022/12/28 02:13:37;;;;;;;;;;;;;;;12.01;47.46;101266.63;5001417;27;98066;-70
2022/12/28 02:16:04;;;;;;;;;;;;;;;11.99;47.62;101257.16;4966027;27;128533;-70
2022/12/28 02:18:30;;;;;;;;;;;;;;;11.98;47.58;101260.91;5002198;27;100237;-70
2022/12/28 02:21:15;;;;;;;;;;;;;;;11.97;47.59;101243.91;4976582;27;127118;-69
2022/12/28 02:23:53;;;;;;;;;;;;;;;11.97;47.65;101245.78;5000727;27;121691;-66
2022/12/28 02:26:50;;;;;;;;;;;;;;;11.95;47.59;101232.56;5001596;27;107169;-70
2022/12/28 02:29:28;;;;;;;;;;;;;;;11.94;47.50;101233.59;5001113;27;100290;-70
2022/12/28 02:32:13;;;;;;;;;;;;;;;11.92;47.52;101219.56;4999152;27;99416;-66
2022/12/28 02:34:49;;;;;;;;;;;;;;;11.91;47.69;101217.94;4983601;27;122673;-70
2022/12/28 02:37:19;;;;;;;;;;;;;;;11.92;47.52;101224.16;5003675;27;99491;-70
2022/12/28 02:40:10;;;;;;;;;;;;;;;11.90;47.59;101218.16;4985244;27;98197;-65
2022/12/28 02:42:36;;;;;;;;;;;;;;;11.89;47.64;101217.34;4974636;27;117321;-69
2022/12/28 02:50:49;;;;;;;;;;;;;;;11.87;47.62;101208.72;4986549;27;97867;-65
2022/12/28 02:53:53;;;;;;;;;;;;;;;11.86;47.60;101192.75;4968434;27;128272;-65
2022/12/28 02:56:30;;;;;;;;;;;;;;;11.84;47.59;101179.50;4988651;27;98029;-65
2022/12/28 02:59:15;;;;;;;;;;;;;;;11.85;47.40;101174.91;4969790;27;98052;-65
2022/12/28 03:02:12;;;;;;;;;;;;;;;11.84;47.59;101173.28;4986831;27;99603;-70
2022/12/28 03:05:08;;;;;;;;;;;;;;;11.84;47.68;101170.59;4981279;27;98248;-65
2022/12/28 03:10:48;;;;;;;;;;;;;;;11.82;47.49;101156.47;4999390;27;97829;-70
2022/12/28 03:16:07;;;;;;;;;;;;;;;11.80;47.67;101148.66;4987130;27;97967;-66
2022/12/28 03:32:18;;;;;;;;;;;;;;;11.79;47.59;101110.03;4989660;27;99263;-66
2022/12/28 03:34:44;;;;;;;;;;;;;;;11.80;47.48;101110.84;4972263;27;105455;-71
2022/12/28 03:37:17;;;;;;;;;;;;;;;11.80;47.53;101097.34;4987595;27;104579;-71
2022/12/28 03:39:56;;;;;;;;;;;;;;;11.80;47.62;101094.63;4986267;27;97865;-65
2022/12/28 03:45:37;;;;;;;;;;;;;;;11.79;47.44;101079.50;4989291;27;98274;-70
2022/12/28 03:48:03;;;;;;;;;;;;;;;11.79;47.77;101064.09;4991617;27;124051;-65
2022/12/28 03:50:29;;;;;;;;;;;;;;;11.80;47.58;101068.44;4970017;27;97966;-66
2022/12/28 03:52:57;;;;;;;;;;;;;;;11.79;47.60;101063.31;4972713;27;99539;-65
2022/12/28 03:55:23;;;;;;;;;;;;;;;11.79;47.45;101058.72;4990352;27;102535;-66
2022/12/28 03:57:49;;;;;;;;;;;;;;;11.79;47.37;101055.19;4973586;27;119496;-65
2022/12/28 04:00:15;;;;;;;;;;;;;;;11.79;47.51;101044.41;4985292;27;128653;-68
2022/12/28 04:02:41;;;;;;;;;;;;;;;11.79;47.54;101041.69;4969484;27;129074;-69
2022/12/28 04:05:07;;;;;;;;;;;;;;;11.78;47.61;101046.25;4986487;27;112464;-71
2022/12/28 04:07:33;;;;;;;;;;;;;;;11.80;47.45;101040.63;4972870;27;100667;-65
2022/12/28 04:09:59;;;;;;;;;;;;;;;11.79;47.48;101031.69;4970614;27;129330;-69
2022/12/28 04:12:25;;;;;;;;;;;;;;;11.78;47.48;101030.06;4984912;27;107420;-65
2022/12/28 04:14:51;;;;;;;;;;;;;;;11.79;47.40;101029.00;4996653;27;97901;-65
2022/12/28 04:17:17;;;;;;;;;;;;;;;11.79;47.49;101020.09;4988072;27;98837;-65
2022/12/28 04:19:43;;;;;;;;;;;;;;;11.79;47.41;101020.09;4967662;27;128268;-66
2022/12/28 04:22:09;;;;;;;;;;;;;;;11.77;47.64;101014.94;4986776;27;104542;-65
2022/12/28 04:24:35;;;;;;;;;;;;;;;11.79;47.67;101020.09;4988585;27;112079;-71
2022/12/28 04:27:00;;;;;;;;;;;;;;;11.78;47.52;101008.44;4986748;27;127620;-72
2022/12/28 04:29:26;;;;;;;;;;;;;;;11.78;47.48;101018.44;4987238;27;126889;-65
2022/12/28 04:31:52;;;;;;;;;;;;;;;11.78;47.63;101016.53;4972664;27;98275;-66
2022/12/28 04:34:18;;;;;;;;;;;;;;;11.78;47.56;101011.13;4987965;27;112599;-66
2022/12/28 04:36:45;;;;;;;;;;;;;;;11.78;47.54;101004.94;4973890;27;127511;-69
2022/12/28 04:39:11;;;;;;;;;;;;;;;11.77;47.44;100998.72;5002199;27;99060;-70
2022/12/28 04:41:38;;;;;;;;;;;;;;;11.76;47.50;101010.59;4968457;27;127603;-71
2022/12/28 04:44:05;;;;;;;;;;;;;;;11.77;47.42;101006.00;4971389;27;97897;-70
2022/12/28 04:46:31;;;;;;;;;;;;;;;11.76;47.44;100999.00;4983362;27;105830;-66
2022/12/28 04:48:56;;;;;;;;;;;;;;;11.75;47.61;100998.19;4987662;27;124452;-70
2022/12/28 04:51:24;;;;;;;;;;;;;;;11.76;47.40;100990.91;4965064;27;127575;-69
2022/12/28 04:53:50;;;;;;;;;;;;;;;11.74;47.42;100977.63;4988950;27;110118;-70
2022/12/28 04:56:17;;;;;;;;;;;;;;;11.74;47.30;100980.34;4970482;27;98481;-65
2022/12/28 04:58:43;;;;;;;;;;;;;;;11.74;47.50;100974.94;4988128;27;104950;-65
2022/12/28 05:01:10;;;;;;;;;;;;;;;11.74;47.56;100971.41;4967130;27;99017;-70
2022/12/28 05:03:37;;;;;;;;;;;;;;;11.73;47.60;100967.09;4966887;27;101293;-70
2022/12/28 05:06:06;;;;;;;;;;;;;;;11.73;47.30;100959.00;4969072;27;120135;-71
2022/12/28 05:08:32;;;;;;;;;;;;;;;11.72;47.77;100955.50;4987431;27;98539;-66
2022/12/28 05:11:02;;;;;;;;;;;;;;;11.71;47.38;100953.88;4970056;27;98846;-65
2022/12/28 05:13:28;;;;;;;;;;;;;;;11.72;47.57;100952.78;4986290;27;104964;-66
2022/12/28 05:15:54;;;;;;;;;;;;;;;11.72;47.44;100960.09;4965893;27;129375;-65
2022/12/28 05:18:20;;;;;;;;;;;;;;;11.71;47.46;100961.97;4983644;27;118096;-66
2022/12/28 05:20:46;;;;;;;;;;;;;;;11.71;47.53;100958.44;4986288;27;126951;-65
2022/12/28 05:23:11;;;;;;;;;;;;;;;11.69;47.54;100950.63;5020936;27;112641;-66
2022/12/28 05:25:37;;;;;;;;;;;;;;;11.71;47.35;100947.63;4984199;27;128749;-71
2022/12/28 05:28:03;;;;;;;;;;;;;;;11.70;47.47;100949.53;4968008;27;128864;-66
2022/12/28 05:30:29;;;;;;;;;;;;;;;11.70;47.55;100948.72;4994970;27;98086;-65
2022/12/28 05:32:55;;;;;;;;;;;;;;;11.71;47.77;100940.38;4998316;27;117486;-65
2022/12/28 05:35:21;;;;;;;;;;;;;;;11.70;47.46;100952.22;4982051;27;127341;-69
2022/12/28 05:37:47;;;;;;;;;;;;;;;11.70;47.55;100940.63;4984046;27;98140;-65
2022/12/28 05:40:13;;;;;;;;;;;;;;;11.69;47.51;100952.50;5000305;27;127744;-66
2022/12/28 05:42:39;;;;;;;;;;;;;;;11.69;47.41;100949.81;4965351;27;117188;-65
2022/12/28 05:45:05;;;;;;;;;;;;;;;11.70;47.59;100952.22;4985647;27;128062;-65
2022/12/28 05:47:31;;;;;;;;;;;;;;;11.70;47.47;100944.13;4981348;27;123079;-66
2022/12/28 05:49:57;;;;;;;;;;;;;;;11.69;47.26;100930.91;4969514;27;99483;-66
2022/12/28 05:52:23;;;;;;;;;;;;;;;11.70;47.54;100946.03;4984550;27;115511;-66
2022/12/28 05:54:49;;;;;;;;;;;;;;;11.70;47.57;100938.72;4970069;27;115404;-66
2022/12/28 05:57:15;;;;;;;;;;;;;;;11.69;47.38;100941.69;4983735;27;128278;-69
2022/12/28 05:59:41;;;;;;;;;;;;;;;11.70;47.42;100933.31;4965033;27;98200;-70
2022/12/28 06:02:07;;;;;;;;;;;;;;;11.69;47.46;100930.91;4978969;27;98096;-69
2022/12/28 06:04:33;;;;;;;;;;;;;;;11.68;47.34;100924.69;4982137;27;102744;-65
2022/12/28 06:06:58;;;;;;;;;;;;;;;11.69;47.60;100926.31;4963646;27;130780;-70
2022/12/28 06:09:24;;;;;;;;;;;;;;;11.70;47.55;100927.91;4967529;27;128066;-70
2022/12/28 06:11:50;;;;;;;;;;;;;;;11.69;47.45;100928.19;4986163;27;117696;-70
2022/12/28 06:14:16;;;;;;;;;;;;;;;11.70;47.54;100922.53;4983250;27;131448;-66
2022/12/28 06:16:42;;;;;;;;;;;;;;;11.71;47.52;100917.94;4958955;27;128169;-66
2022/12/28 06:19:10;;;;;;;;;;;;;;;11.70;47.45;100916.31;4985546;27;98072;-70
2022/12/28 06:21:37;;;;;;;;;;;;;;;11.70;47.63;100906.31;4969533;27;100147;-66
2022/12/28 06:24:03;;;;;;;;;;;;;;;11.69;47.70;100902.00;4966629;27;125922;-71
2022/12/28 06:26:30;;;;;;;;;;;;;;;11.69;47.78;100895.78;4984503;27;98114;-66
2022/12/28 06:28:57;;;;;;;;;;;;;;;11.71;47.39;100901.72;4982476;27;98182;-69
2022/12/28 06:31:27;;;;;;;;;;;;;;;11.71;47.57;100893.63;4985504;27;98155;-71
2022/12/28 06:33:56;;;;;;;;;;;;;;;11.71;47.63;100888.22;4969405;27;100025;-70
2022/12/28 06:36:27;;;;;;;;;;;;;;;11.70;47.32;100887.41;5001910;27;99584;-66
2022/12/28 06:38:53;;;;;;;;;;;;;;;11.70;47.52;100890.13;4966533;27;98235;-69
2022/12/28 06:41:19;;;;;;;;;;;;;;;11.71;47.59;100880.13;4968003;27;98213;-69
2022/12/28 06:43:45;;;;;;;;;;;;;;;11.71;47.50;100882.81;4981830;27;99284;-66
2022/12/28 06:46:12;;;;;;;;;;;;;;;11.70;47.59;100882.00;4979807;27;116989;-66
2022/12/28 06:48:38;;;;;;;;;;;;;;;11.71;47.39;100891.75;4978549;27;99465;-69
2022/12/28 06:51:20;;;;;;;;;;;;;;;11.71;47.43;100889.06;4992682;27;97991;-69
2022/12/28 06:53:47;;;;;;;;;;;;;;;11.72;47.37;100887.16;4997135;27;98904;-71
2022/12/28 06:56:14;;;;;;;;;;;;;;;11.72;47.44;100887.97;4980722;27;98450;-66
2022/12/28 06:58:40;;;;;;;;;;;;;;;11.73;47.45;100883.38;4979826;27;97945;-66
2022/12/28 07:01:14;;;;;;;;;;;;;;;11.73;47.43;100875.28;4963623;27;97835;-66
2022/12/28 07:03:40;;;;;;;;;;;;;;;11.74;47.40;100883.09;4963443;27;97924;-69
2022/12/28 07:06:06;;;;;;;;;;;;;;;11.74;47.34;100876.91;4982172;27;98382;-69
2022/12/28 07:08:32;;;;;;;;;;;;;;;11.74;47.27;100882.31;4980327;27;126278;-71
2022/12/28 07:11:06;;;;;;;;;;;;;;;11.75;47.43;100873.94;4967557;27;106695;-65
2022/12/28 07:13:32;;;;;;;;;;;;;;;11.76;47.66;100877.47;4980499;27;106537;-66
2022/12/28 07:16:02;;;;;;;;;;;;;;;11.77;47.32;100877.19;4979950;27;99456;-66
2022/12/28 07:18:28;;;;;;;;;;;;;;;11.78;47.45;100878.00;4981398;27;98259;-65
2022/12/28 07:21:05;;;;;;;;;;;;;;;11.78;47.48;100872.59;4962715;27;97977;-65
2022/12/28 07:23:31;;;;;;;;;;;;;;;11.79;47.29;100866.13;4982120;27;117984;-65
2022/12/28 07:25:57;;;;;;;;;;;;;;;11.80;47.50;100863.16;4977894;27;128561;-65
2022/12/28 07:28:23;;;;;;;;;;;;;;;11.81;47.42;100845.06;4994007;27;122737;-65
2022/12/28 07:30:49;;;;;;;;;;;;;;;11.82;47.14;100835.88;4978386;27;116312;-70
2022/12/28 07:33:15;;;;;;;;;;;;;;;11.85;47.42;100842.66;4973877;27;127576;-65
2022/12/28 07:35:41;;;;;;;;;;;;;;;11.86;47.36;100836.19;4980496;27;128634;-69
2022/12/28 07:38:07;;;;;;;;;;;;;;;11.88;47.38;100832.16;4981550;27;101255;-64
2022/12/28 07:40:33;;;;;;;;;;;;;;;11.90;47.15;100829.16;4962497;27;119683;-70
2022/12/28 07:42:59;;;;;;;;;;;;;;;11.93;47.35;100823.22;4978545;27;112641;-70
2022/12/28 07:45:25;;;;;;;;;;;;;;;11.94;47.29;100820.25;4980464;27;99812;-64
2022/12/28 07:47:51;;;;;;;;;;;;;;;11.95;47.32;100824.59;4992303;27;99433;-70
2022/12/28 07:50:17;;;;;;;;;;;;;;;11.97;47.23;100824.31;4977874;27;117276;-70
2022/12/28 07:52:43;;;;;;;;;;;;;;;11.97;47.27;100817.03;4978096;27;128348;-64
2022/12/28 07:55:09;;;;;;;;;;;;;;;11.99;47.40;100811.38;4977572;27;127093;-70
2022/12/28 07:57:35;;;;;;;;;;;;;;;12.02;47.37;100817.06;4960087;27;125585;-64
2022/12/28 08:00:01;;;;;;;;;;;;;;;12.05;47.30;100804.88;4979469;27;117603;-70
2022/12/28 08:02:27;;;;;;;;;;;;;;;12.09;47.38;100810.56;4974311;27;121596;-68
2022/12/28 08:04:53;;;;;;;;;;;;;;;12.11;47.18;100813.81;4964586;27;99424;-70
2022/12/28 08:07:19;;;;;;;;;;;;;;;12.13;47.22;100808.94;4980789;27;129326;-70
2022/12/28 08:09:45;;;;;;;;;;;;;;;12.16;47.26;100813.81;4982444;27;103706;-69
2022/12/28 08:12:11;;;;;;;;;;;;;;;12.21;47.13;100806.50;4979005;27;128042;-65
2022/12/28 08:14:37;;;;;;;;;;;;;;;12.26;47.08;100803.00;4964623;27;127699;-70
2022/12/28 08:17:03;;;;;;;;;;;;;;;12.31;47.08;100799.50;4966024;27;127358;-69
2022/12/28 08:19:29;;;;;;;;;;;;;;;12.33;47.07;100794.63;4980019;27;117793;-70
2022/12/28 08:21:54;;;;;;;;;;;;;;;12.34;47.23;100788.97;4983153;27;128227;-70
2022/12/28 08:24:20;;;;;;;;;;;;;;;12.38;47.29;100789.19;4981420;27;116236;-70
2022/12/28 08:26:47;;;;;;;;;;;;;;;12.42;47.12;100774.91;4960378;27;99349;-64
2022/12/28 08:29:18;;;;;;;;;;;;;;;12.51;46.93;100772.44;4981739;27;99946;-66
2022/12/28 08:31:44;;;;;;;;;;;;;;;12.62;46.95;100770.53;4980207;27;107657;-64
2022/12/28 08:34:14;;;;;;;;;;;;;;;12.76;46.82;100766.16;4982447;27;99557;-68
2022/12/28 08:36:40;;;;;;;;;;;;;;;12.91;46.55;100751.78;4977251;27;99063;-64
2022/12/28 08:39:06;;;;;;;;;;;;;;;13.01;46.34;100747.16;4981737;27;115658;-70
2022/12/28 08:41:32;;;;;;;;;;;;;;;13.07;46.74;100737.13;4982194;27;110279;-63
2022/12/28 08:43:58;;;;;;;;;;;;;;;13.12;46.63;100744.41;4998694;27;127399;-68
2022/12/28 08:46:26;;;;;;;;;;;;;;;13.15;46.57;100741.94;4981692;27;101107;-63
2022/12/28 08:48:53;;;;;;;;;;;;;;;13.18;46.77;100741.41;4981626;27;102679;-64
2022/12/28 08:51:35;;;;;;;;;;;;;;;13.31;46.72;100740.00;4976126;27;98306;-64
2022/12/28 08:54:01;;;;;;;;;;;;;;;13.41;46.38;100731.03;4972901;27;98400;-64
2022/12/28 08:56:31;;;;;;;;;;;;;;;13.47;46.66;100738.03;4960349;27;120895;-64
2022/12/28 08:58:57;;;;;;;;;;;;;;;13.63;46.22;100739.53;4962202;27;98555;-64
2022/12/28 09:01:25;;;;;;;;;;;;;;;13.80;46.39;100736.47;4963195;27;98343;-68
2022/12/28 09:03:53;;;;;;;;;;;;;;;13.95;45.99;100735.53;4965437;27;98615;-70
2022/12/28 09:06:23;;;;;;;;;;;;;;;14.12;45.91;100735.94;4962724;27;97942;-70
2022/12/28 09:08:53;;;;;;;;;;;;;;;14.21;45.76;100736.13;4963905;27;98139;-70
2022/12/28 09:11:20;;;;;;;;;;;;;;;14.24;46.28;100738.28;4979216;27;102415;-65
2022/12/28 09:13:46;;;;;;;;;;;;;;;14.30;46.14;100737.13;4951189;28;98645;-71
2022/12/28 09:16:14;;;;;;;;;;;;;;;14.30;46.50;100734.41;4976326;27;99501;-70
2022/12/28 09:18:40;;;;;;;;;;;;;;;14.33;46.21;100722.19;4948031;27;98323;-65
2022/12/28 09:21:14;;;;;;;;;;;;;;;14.40;46.28;100717.25;4962420;27;104633;-66
2022/12/28 09:23:40;;;;;;;;;;;;;;;14.50;46.17;100722.59;4944329;27;99180;-70
2022/12/28 09:26:10;;;;;;;;;;;;;;;14.57;46.03;100714.91;4962041;27;115093;-69
2022/12/28 09:28:36;;;;;;;;;;;;;;;14.64;46.27;100711.88;4980027;27;110521;-69
2022/12/28 09:31:06;;;;;;;;;;;;;;;14.69;45.96;100709.09;4976301;27;122182;-71
2022/12/28 09:36:18;;;;;;;;;;;;;;;14.80;46.10;100696.22;4979121;27;98418;-65
2022/12/28 09:38:44;;;;;;;;;;;;;;;14.76;46.36;100706.84;4963312;27;98096;-69
2022/12/28 09:41:15;;;;;;;;;;;;;;;14.75;46.11;100701.72;4960960;27;98437;-71
2022/12/28 09:43:41;;;;;;;;;;;;;;;14.76;46.40;100697.91;4946385;27;124940;-65
2022/12/28 09:46:07;;;;;;;;;;;;;;;14.83;46.29;100684.78;4961603;27;124539;-65
2022/12/28 09:48:33;;;;;;;;;;;;;;;14.83;46.24;100688.31;4960265;27;117674;-66
2022/12/28 09:50:59;;;;;;;;;;;;;;;14.87;46.26;100685.84;4990472;27;128205;-71
2022/12/28 09:53:28;;;;;;;;;;;;;;;14.94;46.17;100680.88;4960502;27;131400;-66
2022/12/28 09:56:36;;;;;;;;;;;;;;;15.08;45.82;100680.94;4950060;27;98178;-71
2022/12/28 09:59:04;;;;;;;;;;;;;;;15.12;46.12;100677.34;4962835;27;98411;-65
2022/12/28 10:01:30;;;;;;;;;;;;;;;15.18;46.17;100672.66;4961722;27;98357;-65
2022/12/28 10:03:56;;;;;;;;;;;;;;;15.21;45.91;100672.09;4975640;27;131234;-70
2022/12/28 10:06:24;;;;;;;;;;;;;;;15.29;46.12;100667.88;4978553;27;127764;-65
2022/12/28 10:09:00;;;;;;;;;;;;;;;15.23;46.00;100667.16;4977960;27;98473;-71
2022/12/28 10:11:32;;;;;;;;;;;;;;;15.09;46.42;100666.25;4979264;27;98485;-65
2022/12/28 10:13:59;;;;;;;;;;;;;;;14.95;46.65;100655.34;4978556;27;98514;-69
2022/12/28 10:16:26;;;;;;;;;;;;;;;14.88;46.54;100644.81;4979411;27;104331;-66
2022/12/28 10:18:52;;;;;;;;;;;;;;;14.85;46.42;100645.41;4976569;27;97841;-65
2022/12/28 10:21:19;;;;;;;;;;;;;;;14.84;46.70;100645.69;4960030;27;128809;-65
2022/12/28 10:23:46;;;;;;;;;;;;;;;14.82;46.62;100637.88;4961236;27;99175;-65
2022/12/28 10:26:14;;;;;;;;;;;;;;;14.75;46.81;100644.75;4960099;27;98082;-66
2022/12/28 10:28:57;;;;;;;;;;;;;;;14.65;47.07;100643.75;4960112;27;116356;-65
2022/12/28 10:31:33;;;;;;;;;;;;;;;14.60;46.76;100634.88;4976510;27;105842;-65
2022/12/28 10:33:59;;;;;;;;;;;;;;;14.56;46.75;100634.66;4973117;27;98254;-65
2022/12/28 10:36:26;;;;;;;;;;;;;;;14.56;46.78;100636.56;4976738;27;99710;-69
2022/12/28 10:38:53;;;;;;;;;;;;;;;14.53;46.82;100640.66;4991506;27;105867;-63
2022/12/28 10:41:19;;;;;;;;;;;;;;;14.48;46.93;100633.34;4961789;27;97954;-68
2022/12/28 10:43:51;;;;;;;;;;;;;;;14.45;46.79;100641.25;4973667;27;110965;-67
2022/12/28 10:46:24;;;;;;;;;;;;;;;14.43;46.78;100646.19;4960947;27;98153;-64
2022/12/28 10:48:54;;;;;;;;;;;;;;;14.42;46.67;100630.97;4992324;27;99913;-64
2022/12/28 10:51:21;;;;;;;;;;;;;;;14.39;47.11;100639.72;4964687;27;111146;-64
2022/12/28 10:53:50;;;;;;;;;;;;;;;14.36;47.17;100637.56;4992219;27;119082;-64
2022/12/28 10:56:26;;;;;;;;;;;;;;;14.34;47.23;100628.91;4993264;27;97784;-69
2022/12/28 10:59:11;;;;;;;;;;;;;;;14.30;46.80;100619.72;4976439;27;98039;-70
2022/12/28 11:01:37;;;;;;;;;;;;;;;14.25;46.88;100621.41;4987732;27;98750;-70
2022/12/28 11:04:19;;;;;;;;;;;;;;;14.22;47.26;100629.31;4975482;27;118466;-69
2022/12/28 11:06:55;;;;;;;;;;;;;;;14.18;47.18;100612.78;4976527;27;99055;-67
2022/12/28 11:09:23;;;;;;;;;;;;;;;14.16;46.93;100603.34;4974863;27;98911;-70
2022/12/28 11:11:51;;;;;;;;;;;;;;;14.14;46.85;100605.53;4975633;27;98872;-65
2022/12/28 11:14:27;;;;;;;;;;;;;;;14.13;47.02;100602.03;4973669;27;98009;-68
2022/12/28 11:16:53;;;;;;;;;;;;;;;14.13;46.94;100599.31;4976435;27;123966;-66
2022/12/28 11:19:19;;;;;;;;;;;;;;;14.17;46.86;100578.66;4959115;27;98257;-70
2022/12/28 11:21:45;;;;;;;;;;;;;;;14.23;47.00;100579.44;4979362;27;105306;-66
2022/12/28 11:24:15;;;;;;;;;;;;;;;14.28;47.05;100576.66;4993975;27;98509;-65
2022/12/28 11:26:46;;;;;;;;;;;;;;;14.30;46.86;100582.56;4972060;27;104297;-66
2022/12/28 11:29:16;;;;;;;;;;;;;;;14.32;47.09;100579.59;4960165;27;98166;-65
2022/12/28 11:32:14;;;;;;;;;;;;;;;14.33;46.64;100575.78;4959472;27;100511;-70
2022/12/28 11:34:40;;;;;;;;;;;;;;;14.39;46.75;100578.16;4975007;27;98390;-65
2022/12/28 11:37:12;;;;;;;;;;;;;;;14.43;46.92;100570.25;4957008;27;127189;-67
2022/12/28 11:39:45;;;;;;;;;;;;;;;14.45;46.77;100568.03;4958024;27;98885;-70
2022/12/28 11:42:12;;;;;;;;;;;;;;;14.46;46.99;100561.50;4991513;27;98831;-68
2022/12/28 11:44:38;;;;;;;;;;;;;;;14.47;46.87;100555.81;4975836;27;113575;-65
2022/12/28 11:47:17;;;;;;;;;;;;;;;14.49;47.05;100556.34;4996323;27;98960;-70
2022/12/28 11:49:46;;;;;;;;;;;;;;;14.49;46.63;100555.53;4978881;27;98221;-65
2022/12/28 11:52:15;;;;;;;;;;;;;;;14.48;46.98;100553.91;4977318;27;119361;-69
2022/12/28 11:54:51;;;;;;;;;;;;;;;14.48;46.82;100559.31;4998141;27;99622;-65
2022/12/28 11:57:39;;;;;;;;;;;;;;;14.49;46.76;100555.53;4977804;27;98176;-66
2022/12/28 12:00:22;;;;;;;;;;;;;;;14.48;46.78;100559.31;4962075;27;98168;-65
2022/12/28 12:02:51;;;;;;;;;;;;;;;14.45;46.83;100554.47;4982771;27;99689;-68
2022/12/28 12:05:36;;;;;;;;;;;;;;;14.44;46.91;100559.09;4995831;27;98324;-70
2022/12/28 12:08:11;;;;;;;;;;;;;;;14.45;47.08;100555.28;4992655;27;99353;-66
2022/12/28 12:10:38;;;;;;;;;;;;;;;14.45;47.05;100544.44;4996514;27;98109;-65
2022/12/28 12:13:27;;;;;;;;;;;;;;;14.46;47.02;100543.34;4991922;27;98454;-65
2022/12/28 12:15:59;;;;;;;;;;;;;;;14.47;47.08;100549.56;4986719;27;98125;-65
2022/12/28 12:18:26;;;;;;;;;;;;;;;14.45;46.86;100543.63;4978224;27;99250;-70
2022/12/28 12:21:05;;;;;;;;;;;;;;;14.45;46.81;100541.72;4977423;27;112944;-65
2022/12/28 12:23:45;;;;;;;;;;;;;;;14.44;46.85;100533.88;4978235;27;107807;-65
2022/12/28 12:26:19;;;;;;;;;;;;;;;14.43;46.94;100535.00;4989364;27;99682;-70
2022/12/28 12:28:51;;;;;;;;;;;;;;;14.44;47.14;100537.41;4993586;27;99222;-70
2022/12/28 12:31:36;;;;;;;;;;;;;;;14.47;46.91;100530.59;4979963;27;97831;-65
2022/12/28 12:34:11;;;;;;;;;;;;;;;14.48;47.06;100527.56;4980673;27;97922;-69
2022/12/28 12:36:41;;;;;;;;;;;;;;;14.50;47.12;100521.88;4975100;27;114400;-65
2022/12/28 12:39:10;;;;;;;;;;;;;;;14.54;46.66;100522.94;4976920;27;99514;-69
2022/12/28 12:41:39;;;;;;;;;;;;;;;14.57;46.99;100516.09;4995987;27;98586;-70
2022/12/28 12:44:35;;;;;;;;;;;;;;;14.57;46.98;100526.94;4977865;27;99685;-70
2022/12/28 12:47:38;;;;;;;;;;;;;;;14.54;47.25;100527.53;4959972;27;98083;-69
2022/12/28 12:50:19;;;;;;;;;;;;;;;14.54;47.23;100527.53;4987429;27;99601;-70
2022/12/28 12:53:10;;;;;;;;;;;;;;;14.50;47.12;100521.88;4962459;27;109413;-65
2022/12/28 12:56:04;;;;;;;;;;;;;;;14.47;46.97;100517.84;4994582;27;98737;-65
2022/12/28 12:58:50;;;;;;;;;;;;;;;14.45;47.22;100522.72;4979496;27;99191;-65
2022/12/28 13:02:01;;;;;;;;;;;;;;;14.45;47.25;100508.38;4959346;27;124616;-70
2022/12/28 13:04:28;;;;;;;;;;;;;;;14.44;47.26;100514.91;4956450;27;98236;-65
2022/12/28 13:07:02;;;;;;;;;;;;;;;14.40;47.16;100520.09;4977705;27;97998;-65
2022/12/28 13:09:29;;;;;;;;;;;;;;;14.37;47.41;100517.16;4975118;27;110270;-70
2022/12/28 13:11:55;;;;;;;;;;;;;;;14.34;47.11;100525.88;4960921;27;124406;-68
2022/12/28 13:14:22;;;;;;;;;;;;;;;14.32;47.17;100525.38;4964647;27;98534;-70